sensor_id;sensor_type;location;lat;lon;timestamp;P1;durP1;ratioP1;P2;durP2;ratioP2
74660;SDS011;63191;39.566;2.654;2023-06-10T00:01:46;37.10;;;17.00;;
74660;SDS011;63191;39.566;2.654;2023-06-10T00:04:15;47.30;;;17.40;;
74660;SDS011;63191;39.566;2.654;2023-06-10T00:06:43;43.90;;;18.10;;
74660;SDS011;63191;39.566;2.654;2023-06-10T00:09:09;25.50;;;10.90;;
74660;SDS011;63191;39.566;2.654;2023-06-10T00:11:39;23.20;;;8.90;;
74660;SDS011;63191;39.566;2.654;2023-06-10T00:14:06;16.20;;;6.20;;
74660;SDS011;63191;39.566;2.654;2023-06-10T00:16:33;12.40;;;4.80;;
74660;SDS011;63191;39.566;2.654;2023-06-10T00:19:02;12.30;;;5.10;;
74660;SDS011;63191;39.566;2.654;2023-06-10T00:21:33;11.20;;;4.40;;
74660;SDS011;63191;39.566;2.654;2023-06-10T00:24:06;10.70;;;3.80;;
74660;SDS011;63191;39.566;2.654;2023-06-10T00:26:40;10.30;;;3.60;;
74660;SDS011;63191;39.566;2.654;2023-06-10T00:29:07;11.00;;;4.30;;
74660;SDS011;63191;39.566;2.654;2023-06-10T00:31:35;15.60;;;5.80;;
74660;SDS011;63191;39.566;2.654;2023-06-10T00:34:02;13.70;;;5.60;;
74660;SDS011;63191;39.566;2.654;2023-06-10T00:36:28;16.20;;;6.10;;
74660;SDS011;63191;39.566;2.654;2023-06-10T00:38:54;14.50;;;5.50;;
74660;SDS011;63191;39.566;2.654;2023-06-10T00:41:19;14.90;;;5.50;;
74660;SDS011;63191;39.566;2.654;2023-06-10T00:43:45;16.80;;;5.10;;
74660;SDS011;63191;39.566;2.654;2023-06-10T00:46:11;40.10;;;15.10;;
74660;SDS011;63191;39.566;2.654;2023-06-10T00:48:39;61.20;;;25.80;;
74660;SDS011;63191;39.566;2.654;2023-06-10T00:51:06;54.30;;;23.50;;
74660;SDS011;63191;39.566;2.654;2023-06-10T00:53:34;35.50;;;15.40;;
74660;SDS011;63191;39.566;2.654;2023-06-10T00:56:03;18.80;;;7.60;;
74660;SDS011;63191;39.566;2.654;2023-06-10T00:58:29;15.60;;;5.50;;
74660;SDS011;63191;39.566;2.654;2023-06-10T01:00:56;14.60;;;5.20;;
74660;SDS011;63191;39.566;2.654;2023-06-10T01:03:23;14.90;;;5.00;;
74660;SDS011;63191;39.566;2.654;2023-06-10T01:11:42;12.40;;;4.40;;
74660;SDS011;63191;39.566;2.654;2023-06-10T01:14:12;12.10;;;4.30;;
74660;SDS011;63191;39.566;2.654;2023-06-10T01:16:39;10.60;;;3.60;;
74660;SDS011;63191;39.566;2.654;2023-06-10T01:19:06;12.10;;;4.80;;
74660;SDS011;63191;39.566;2.654;2023-06-10T01:21:33;13.10;;;5.10;;
74660;SDS011;63191;39.566;2.654;2023-06-10T01:23:58;12.30;;;4.80;;
74660;SDS011;63191;39.566;2.654;2023-06-10T01:26:28;13.10;;;4.40;;
74660;SDS011;63191;39.566;2.654;2023-06-10T01:29:28;12.50;;;4.20;;
74660;SDS011;63191;39.566;2.654;2023-06-10T01:32:08;27.30;;;10.40;;
74660;SDS011;63191;39.566;2.654;2023-06-10T01:34:42;28.00;;;10.90;;
74660;SDS011;63191;39.566;2.654;2023-06-10T01:37:09;48.50;;;19.00;;
74660;SDS011;63191;39.566;2.654;2023-06-10T01:39:39;80.80;;;30.80;;
74660;SDS011;63191;39.566;2.654;2023-06-10T01:42:06;50.40;;;20.50;;
74660;SDS011;63191;39.566;2.654;2023-06-10T01:44:32;44.40;;;18.10;;
74660;SDS011;63191;39.566;2.654;2023-06-10T01:46:58;45.80;;;17.60;;
74660;SDS011;63191;39.566;2.654;2023-06-10T01:49:23;31.80;;;12.80;;
74660;SDS011;63191;39.566;2.654;2023-06-10T01:51:51;27.20;;;9.90;;
74660;SDS011;63191;39.566;2.654;2023-06-10T01:54:16;36.60;;;15.00;;
74660;SDS011;63191;39.566;2.654;2023-06-10T01:56:42;38.90;;;14.80;;
74660;SDS011;63191;39.566;2.654;2023-06-10T01:59:08;24.90;;;9.90;;
74660;SDS011;63191;39.566;2.654;2023-06-10T02:01:33;19.60;;;7.80;;
74660;SDS011;63191;39.566;2.654;2023-06-10T02:03:59;17.70;;;7.30;;
74660;SDS011;63191;39.566;2.654;2023-06-10T02:06:25;19.50;;;7.00;;
74660;SDS011;63191;39.566;2.654;2023-06-10T02:08:50;18.60;;;7.20;;
74660;SDS011;63191;39.566;2.654;2023-06-10T02:11:16;13.80;;;5.60;;
74660;SDS011;63191;39.566;2.654;2023-06-10T02:13:42;11.60;;;5.00;;
74660;SDS011;63191;39.566;2.654;2023-06-10T02:16:08;14.60;;;4.90;;
74660;SDS011;63191;39.566;2.654;2023-06-10T02:18:38;10.70;;;4.40;;
74660;SDS011;63191;39.566;2.654;2023-06-10T02:21:06;11.30;;;4.60;;
74660;SDS011;63191;39.566;2.654;2023-06-10T02:23:32;13.30;;;4.80;;
74660;SDS011;63191;39.566;2.654;2023-06-10T02:25:58;11.70;;;4.40;;
74660;SDS011;63191;39.566;2.654;2023-06-10T02:28:23;10.90;;;4.20;;
74660;SDS011;63191;39.566;2.654;2023-06-10T02:30:51;14.70;;;4.40;;
74660;SDS011;63191;39.566;2.654;2023-06-10T02:33:17;10.10;;;4.00;;
74660;SDS011;63191;39.566;2.654;2023-06-10T02:35:43;10.20;;;4.20;;
74660;SDS011;63191;39.566;2.654;2023-06-10T02:38:09;10.70;;;4.00;;
74660;SDS011;63191;39.566;2.654;2023-06-10T02:40:35;9.60;;;3.60;;
74660;SDS011;63191;39.566;2.654;2023-06-10T02:43:00;10.80;;;4.10;;
74660;SDS011;63191;39.566;2.654;2023-06-10T02:45:26;11.60;;;4.30;;
74660;SDS011;63191;39.566;2.654;2023-06-10T02:47:52;13.40;;;4.10;;
74660;SDS011;63191;39.566;2.654;2023-06-10T02:50:18;9.80;;;4.00;;
74660;SDS011;63191;39.566;2.654;2023-06-10T02:52:44;10.00;;;3.90;;
74660;SDS011;63191;39.566;2.654;2023-06-10T02:55:09;10.30;;;3.50;;
74660;SDS011;63191;39.566;2.654;2023-06-10T02:57:35;11.80;;;3.80;;
74660;SDS011;63191;39.566;2.654;2023-06-10T03:00:02;12.70;;;4.00;;
74660;SDS011;63191;39.566;2.654;2023-06-10T03:02:29;9.30;;;3.70;;
74660;SDS011;63191;39.566;2.654;2023-06-10T03:04:57;11.30;;;3.70;;
74660;SDS011;63191;39.566;2.654;2023-06-10T03:07:23;12.90;;;4.10;;
74660;SDS011;63191;39.566;2.654;2023-06-10T03:09:50;10.50;;;4.00;;
74660;SDS011;63191;39.566;2.654;2023-06-10T03:12:16;14.60;;;4.00;;
74660;SDS011;63191;39.566;2.654;2023-06-10T03:14:41;10.70;;;3.70;;
74660;SDS011;63191;39.566;2.654;2023-06-10T03:17:07;10.20;;;4.60;;
74660;SDS011;63191;39.566;2.654;2023-06-10T03:19:34;15.10;;;4.50;;
74660;SDS011;63191;39.566;2.654;2023-06-10T03:22:12;10.60;;;4.10;;
74660;SDS011;63191;39.566;2.654;2023-06-10T03:24:40;9.90;;;3.70;;
74660;SDS011;63191;39.566;2.654;2023-06-10T03:27:07;12.70;;;3.70;;
74660;SDS011;63191;39.566;2.654;2023-06-10T03:29:33;13.10;;;3.90;;
74660;SDS011;63191;39.566;2.654;2023-06-10T03:31:59;9.70;;;3.60;;
74660;SDS011;63191;39.566;2.654;2023-06-10T03:34:25;10.80;;;4.10;;
74660;SDS011;63191;39.566;2.654;2023-06-10T03:36:51;12.70;;;4.50;;
74660;SDS011;63191;39.566;2.654;2023-06-10T03:39:16;12.40;;;3.90;;
74660;SDS011;63191;39.566;2.654;2023-06-10T03:41:42;11.20;;;3.80;;
74660;SDS011;63191;39.566;2.654;2023-06-10T03:44:08;10.40;;;3.50;;
74660;SDS011;63191;39.566;2.654;2023-06-10T03:46:33;9.20;;;3.50;;
74660;SDS011;63191;39.566;2.654;2023-06-10T03:48:59;11.30;;;3.60;;
74660;SDS011;63191;39.566;2.654;2023-06-10T03:51:29;8.80;;;3.40;;
74660;SDS011;63191;39.566;2.654;2023-06-10T03:53:55;9.70;;;3.30;;
74660;SDS011;63191;39.566;2.654;2023-06-10T03:56:21;8.80;;;3.30;;
74660;SDS011;63191;39.566;2.654;2023-06-10T03:58:46;10.10;;;3.40;;
74660;SDS011;63191;39.566;2.654;2023-06-10T04:01:12;9.80;;;3.10;;
74660;SDS011;63191;39.566;2.654;2023-06-10T04:03:43;8.70;;;2.80;;
74660;SDS011;63191;39.566;2.654;2023-06-10T04:06:09;8.70;;;3.60;;
74660;SDS011;63191;39.566;2.654;2023-06-10T04:08:35;11.80;;;3.70;;
74660;SDS011;63191;39.566;2.654;2023-06-10T04:11:01;10.10;;;3.20;;
74660;SDS011;63191;39.566;2.654;2023-06-10T04:13:27;9.40;;;3.60;;
74660;SDS011;63191;39.566;2.654;2023-06-10T04:15:53;11.10;;;3.50;;
74660;SDS011;63191;39.566;2.654;2023-06-10T04:18:22;11.50;;;3.30;;
74660;SDS011;63191;39.566;2.654;2023-06-10T04:20:48;9.60;;;3.20;;
74660;SDS011;63191;39.566;2.654;2023-06-10T04:23:13;8.20;;;2.80;;
74660;SDS011;63191;39.566;2.654;2023-06-10T04:25:39;9.20;;;2.90;;
74660;SDS011;63191;39.566;2.654;2023-06-10T04:28:05;9.80;;;2.90;;
74660;SDS011;63191;39.566;2.654;2023-06-10T04:30:30;8.20;;;3.00;;
74660;SDS011;63191;39.566;2.654;2023-06-10T04:32:57;8.60;;;3.20;;
74660;SDS011;63191;39.566;2.654;2023-06-10T04:35:23;7.90;;;2.40;;
74660;SDS011;63191;39.566;2.654;2023-06-10T04:37:50;7.20;;;2.70;;
74660;SDS011;63191;39.566;2.654;2023-06-10T04:40:15;7.60;;;2.70;;
74660;SDS011;63191;39.566;2.654;2023-06-10T04:42:41;8.70;;;2.90;;
74660;SDS011;63191;39.566;2.654;2023-06-10T04:45:08;9.40;;;3.00;;
74660;SDS011;63191;39.566;2.654;2023-06-10T04:47:34;10.50;;;3.20;;
74660;SDS011;63191;39.566;2.654;2023-06-10T04:50:00;11.30;;;2.80;;
74660;SDS011;63191;39.566;2.654;2023-06-10T04:52:27;6.80;;;2.30;;
74660;SDS011;63191;39.566;2.654;2023-06-10T04:54:53;10.00;;;2.70;;
74660;SDS011;63191;39.566;2.654;2023-06-10T04:57:19;10.10;;;2.80;;
74660;SDS011;63191;39.566;2.654;2023-06-10T04:59:46;9.80;;;2.90;;
74660;SDS011;63191;39.566;2.654;2023-06-10T05:02:13;9.50;;;2.70;;
74660;SDS011;63191;39.566;2.654;2023-06-10T05:04:38;9.70;;;3.00;;
74660;SDS011;63191;39.566;2.654;2023-06-10T05:07:05;9.10;;;2.90;;
74660;SDS011;63191;39.566;2.654;2023-06-10T05:09:31;9.60;;;3.20;;
74660;SDS011;63191;39.566;2.654;2023-06-10T05:11:57;8.40;;;2.80;;
74660;SDS011;63191;39.566;2.654;2023-06-10T05:14:23;8.30;;;2.70;;
74660;SDS011;63191;39.566;2.654;2023-06-10T05:16:49;10.60;;;3.00;;
74660;SDS011;63191;39.566;2.654;2023-06-10T05:19:15;9.20;;;3.00;;
74660;SDS011;63191;39.566;2.654;2023-06-10T05:21:44;9.90;;;3.40;;
74660;SDS011;63191;39.566;2.654;2023-06-10T05:24:11;8.80;;;3.10;;
74660;SDS011;63191;39.566;2.654;2023-06-10T05:26:37;9.50;;;3.40;;
74660;SDS011;63191;39.566;2.654;2023-06-10T05:29:07;10.40;;;3.50;;
74660;SDS011;63191;39.566;2.654;2023-06-10T05:31:34;10.80;;;3.40;;
74660;SDS011;63191;39.566;2.654;2023-06-10T05:34:00;11.80;;;4.10;;
74660;SDS011;63191;39.566;2.654;2023-06-10T05:36:26;11.20;;;3.90;;
74660;SDS011;63191;39.566;2.654;2023-06-10T05:38:52;9.10;;;3.40;;
74660;SDS011;63191;39.566;2.654;2023-06-10T05:41:17;10.10;;;3.40;;
74660;SDS011;63191;39.566;2.654;2023-06-10T05:43:43;10.80;;;3.80;;
74660;SDS011;63191;39.566;2.654;2023-06-10T05:46:09;12.10;;;3.70;;
74660;SDS011;63191;39.566;2.654;2023-06-10T05:48:34;12.00;;;4.50;;
74660;SDS011;63191;39.566;2.654;2023-06-10T05:51:00;15.00;;;3.90;;
74660;SDS011;63191;39.566;2.654;2023-06-10T05:53:26;9.30;;;4.10;;
74660;SDS011;63191;39.566;2.654;2023-06-10T05:55:52;11.90;;;4.30;;
74660;SDS011;63191;39.566;2.654;2023-06-10T05:58:20;10.00;;;3.90;;
74660;SDS011;63191;39.566;2.654;2023-06-10T06:00:45;11.50;;;4.20;;
74660;SDS011;63191;39.566;2.654;2023-06-10T06:03:11;11.70;;;4.30;;
74660;SDS011;63191;39.566;2.654;2023-06-10T06:05:37;10.90;;;4.30;;
74660;SDS011;63191;39.566;2.654;2023-06-10T06:08:07;12.40;;;4.60;;
74660;SDS011;63191;39.566;2.654;2023-06-10T06:10:34;14.40;;;4.50;;
74660;SDS011;63191;39.566;2.654;2023-06-10T06:13:00;13.60;;;3.90;;
74660;SDS011;63191;39.566;2.654;2023-06-10T06:15:26;13.90;;;4.80;;
74660;SDS011;63191;39.566;2.654;2023-06-10T06:17:52;12.60;;;4.50;;
74660;SDS011;63191;39.566;2.654;2023-06-10T06:20:19;14.70;;;4.30;;
74660;SDS011;63191;39.566;2.654;2023-06-10T06:22:46;13.30;;;4.60;;
74660;SDS011;63191;39.566;2.654;2023-06-10T06:25:12;13.00;;;4.50;;
74660;SDS011;63191;39.566;2.654;2023-06-10T06:27:37;13.00;;;4.30;;
74660;SDS011;63191;39.566;2.654;2023-06-10T06:30:04;14.00;;;4.30;;
74660;SDS011;63191;39.566;2.654;2023-06-10T06:32:30;12.60;;;4.50;;
74660;SDS011;63191;39.566;2.654;2023-06-10T06:34:56;11.70;;;4.80;;
74660;SDS011;63191;39.566;2.654;2023-06-10T06:37:26;14.50;;;4.50;;
74660;SDS011;63191;39.566;2.654;2023-06-10T06:39:52;12.70;;;4.50;;
74660;SDS011;63191;39.566;2.654;2023-06-10T06:42:20;11.80;;;4.80;;
74660;SDS011;63191;39.566;2.654;2023-06-10T06:44:48;14.20;;;4.90;;
74660;SDS011;63191;39.566;2.654;2023-06-10T06:47:14;11.50;;;4.40;;
74660;SDS011;63191;39.566;2.654;2023-06-10T06:49:43;12.80;;;4.40;;
74660;SDS011;63191;39.566;2.654;2023-06-10T06:52:08;13.30;;;4.50;;
74660;SDS011;63191;39.566;2.654;2023-06-10T06:54:34;15.00;;;4.70;;
74660;SDS011;63191;39.566;2.654;2023-06-10T06:57:00;13.60;;;4.40;;
74660;SDS011;63191;39.566;2.654;2023-06-10T06:59:26;10.30;;;4.10;;
74660;SDS011;63191;39.566;2.654;2023-06-10T07:01:51;12.90;;;3.90;;
74660;SDS011;63191;39.566;2.654;2023-06-10T07:04:19;11.80;;;3.80;;
74660;SDS011;63191;39.566;2.654;2023-06-10T07:06:50;11.60;;;3.90;;
74660;SDS011;63191;39.566;2.654;2023-06-10T07:09:16;11.60;;;4.20;;
74660;SDS011;63191;39.566;2.654;2023-06-10T07:11:42;10.40;;;4.20;;
74660;SDS011;63191;39.566;2.654;2023-06-10T07:14:07;12.80;;;4.60;;
74660;SDS011;63191;39.566;2.654;2023-06-10T07:16:34;11.90;;;4.20;;
74660;SDS011;63191;39.566;2.654;2023-06-10T07:18:59;12.20;;;3.80;;
74660;SDS011;63191;39.566;2.654;2023-06-10T07:21:25;11.80;;;3.70;;
74660;SDS011;63191;39.566;2.654;2023-06-10T07:23:51;11.00;;;3.10;;
74660;SDS011;63191;39.566;2.654;2023-06-10T07:26:19;10.70;;;3.60;;
74660;SDS011;63191;39.566;2.654;2023-06-10T07:28:47;9.40;;;3.20;;
74660;SDS011;63191;39.566;2.654;2023-06-10T07:31:12;10.70;;;3.20;;
74660;SDS011;63191;39.566;2.654;2023-06-10T07:33:38;12.00;;;3.80;;
74660;SDS011;63191;39.566;2.654;2023-06-10T07:36:09;11.80;;;3.30;;
74660;SDS011;63191;39.566;2.654;2023-06-10T07:38:36;13.50;;;3.80;;
74660;SDS011;63191;39.566;2.654;2023-06-10T07:41:02;11.90;;;3.50;;
74660;SDS011;63191;39.566;2.654;2023-06-10T07:43:27;11.00;;;3.70;;
74660;SDS011;63191;39.566;2.654;2023-06-10T07:45:53;12.00;;;3.80;;
74660;SDS011;63191;39.566;2.654;2023-06-10T07:48:19;12.20;;;3.50;;
74660;SDS011;63191;39.566;2.654;2023-06-10T07:50:45;12.20;;;3.40;;
74660;SDS011;63191;39.566;2.654;2023-06-10T07:53:10;12.00;;;3.20;;
74660;SDS011;63191;39.566;2.654;2023-06-10T07:55:36;14.00;;;3.70;;
74660;SDS011;63191;39.566;2.654;2023-06-10T07:58:02;12.50;;;3.80;;
74660;SDS011;63191;39.566;2.654;2023-06-10T08:00:28;11.10;;;3.40;;
74660;SDS011;63191;39.566;2.654;2023-06-10T08:02:53;11.60;;;3.60;;
74660;SDS011;63191;39.566;2.654;2023-06-10T08:05:19;11.20;;;4.00;;
74660;SDS011;63191;39.566;2.654;2023-06-10T08:07:45;13.10;;;4.50;;
74660;SDS011;63191;39.566;2.654;2023-06-10T08:10:12;13.60;;;4.60;;
74660;SDS011;63191;39.566;2.654;2023-06-10T08:12:38;14.80;;;4.20;;
74660;SDS011;63191;39.566;2.654;2023-06-10T08:15:05;11.90;;;5.10;;
74660;SDS011;63191;39.566;2.654;2023-06-10T08:17:31;11.40;;;3.80;;
74660;SDS011;63191;39.566;2.654;2023-06-10T08:19:57;14.80;;;6.10;;
74660;SDS011;63191;39.566;2.654;2023-06-10T08:22:23;10.40;;;3.50;;
74660;SDS011;63191;39.566;2.654;2023-06-10T08:24:49;13.70;;;4.00;;
74660;SDS011;63191;39.566;2.654;2023-06-10T08:27:14;16.20;;;6.50;;
74660;SDS011;63191;39.566;2.654;2023-06-10T08:29:40;13.20;;;3.80;;
74660;SDS011;63191;39.566;2.654;2023-06-10T08:32:06;15.10;;;3.70;;
74660;SDS011;63191;39.566;2.654;2023-06-10T08:34:35;14.60;;;3.80;;
74660;SDS011;63191;39.566;2.654;2023-06-10T08:37:02;12.40;;;3.20;;
74660;SDS011;63191;39.566;2.654;2023-06-10T08:39:29;12.80;;;4.10;;
74660;SDS011;63191;39.566;2.654;2023-06-10T08:42:28;13.50;;;4.70;;
74660;SDS011;63191;39.566;2.654;2023-06-10T08:45:01;12.10;;;3.40;;
74660;SDS011;63191;39.566;2.654;2023-06-10T08:47:29;10.60;;;4.10;;
74660;SDS011;63191;39.566;2.654;2023-06-10T08:50:03;13.10;;;3.40;;
74660;SDS011;63191;39.566;2.654;2023-06-10T08:52:34;12.40;;;3.70;;
74660;SDS011;63191;39.566;2.654;2023-06-10T08:55:04;9.60;;;3.70;;
74660;SDS011;63191;39.566;2.654;2023-06-10T08:57:36;12.40;;;3.60;;
74660;SDS011;63191;39.566;2.654;2023-06-10T09:00:03;11.70;;;3.60;;
74660;SDS011;63191;39.566;2.654;2023-06-10T09:02:29;14.00;;;3.90;;
74660;SDS011;63191;39.566;2.654;2023-06-10T09:04:57;11.30;;;3.20;;
74660;SDS011;63191;39.566;2.654;2023-06-10T09:07:23;11.50;;;3.50;;
74660;SDS011;63191;39.566;2.654;2023-06-10T09:09:49;12.90;;;4.40;;
74660;SDS011;63191;39.566;2.654;2023-06-10T09:12:15;10.10;;;3.70;;
74660;SDS011;63191;39.566;2.654;2023-06-10T09:14:42;12.30;;;4.30;;
74660;SDS011;63191;39.566;2.654;2023-06-10T09:17:08;13.00;;;3.80;;
74660;SDS011;63191;39.566;2.654;2023-06-10T09:19:35;13.20;;;4.00;;
74660;SDS011;63191;39.566;2.654;2023-06-10T09:22:01;11.20;;;3.80;;
74660;SDS011;63191;39.566;2.654;2023-06-10T09:24:26;10.80;;;4.10;;
74660;SDS011;63191;39.566;2.654;2023-06-10T09:27:04;12.30;;;3.80;;
74660;SDS011;63191;39.566;2.654;2023-06-10T09:29:44;11.70;;;3.30;;
74660;SDS011;63191;39.566;2.654;2023-06-10T09:32:13;11.20;;;4.10;;
74660;SDS011;63191;39.566;2.654;2023-06-10T09:34:39;12.70;;;3.70;;
74660;SDS011;63191;39.566;2.654;2023-06-10T09:37:06;14.30;;;3.80;;
74660;SDS011;63191;39.566;2.654;2023-06-10T09:39:33;13.80;;;3.30;;
74660;SDS011;63191;39.566;2.654;2023-06-10T09:41:59;9.60;;;3.70;;
74660;SDS011;63191;39.566;2.654;2023-06-10T09:44:25;11.40;;;3.70;;
74660;SDS011;63191;39.566;2.654;2023-06-10T09:46:50;12.50;;;4.50;;
74660;SDS011;63191;39.566;2.654;2023-06-10T09:49:17;11.30;;;3.10;;
74660;SDS011;63191;39.566;2.654;2023-06-10T09:51:53;13.60;;;3.30;;
74660;SDS011;63191;39.566;2.654;2023-06-10T09:54:20;13.50;;;3.90;;
74660;SDS011;63191;39.566;2.654;2023-06-10T09:56:48;11.50;;;3.20;;
74660;SDS011;63191;39.566;2.654;2023-06-10T09:59:15;9.80;;;3.20;;
74660;SDS011;63191;39.566;2.654;2023-06-10T10:01:41;11.20;;;3.00;;
74660;SDS011;63191;39.566;2.654;2023-06-10T10:04:07;13.10;;;3.10;;
74660;SDS011;63191;39.566;2.654;2023-06-10T10:06:34;12.70;;;3.00;;
74660;SDS011;63191;39.566;2.654;2023-06-10T10:09:01;14.50;;;3.00;;
74660;SDS011;63191;39.566;2.654;2023-06-10T10:11:30;12.50;;;3.60;;
74660;SDS011;63191;39.566;2.654;2023-06-10T10:13:57;12.10;;;3.80;;
74660;SDS011;63191;39.566;2.654;2023-06-10T10:16:30;11.30;;;2.90;;
74660;SDS011;63191;39.566;2.654;2023-06-10T10:19:20;11.70;;;3.00;;
74660;SDS011;63191;39.566;2.654;2023-06-10T10:21:53;9.30;;;2.60;;
74660;SDS011;63191;39.566;2.654;2023-06-10T10:24:31;13.10;;;3.60;;
74660;SDS011;63191;39.566;2.654;2023-06-10T10:27:01;14.50;;;3.60;;
74660;SDS011;63191;39.566;2.654;2023-06-10T10:29:35;10.20;;;2.60;;
74660;SDS011;63191;39.566;2.654;2023-06-10T10:32:08;12.70;;;2.50;;
74660;SDS011;63191;39.566;2.654;2023-06-10T10:34:49;12.50;;;2.90;;
74660;SDS011;63191;39.566;2.654;2023-06-10T10:37:20;13.60;;;3.20;;
74660;SDS011;63191;39.566;2.654;2023-06-10T10:39:46;11.60;;;3.30;;
74660;SDS011;63191;39.566;2.654;2023-06-10T10:42:13;11.40;;;3.30;;
74660;SDS011;63191;39.566;2.654;2023-06-10T10:44:39;11.80;;;3.00;;
74660;SDS011;63191;39.566;2.654;2023-06-10T10:47:08;9.70;;;3.00;;
74660;SDS011;63191;39.566;2.654;2023-06-10T10:49:35;13.40;;;4.40;;
74660;SDS011;63191;39.566;2.654;2023-06-10T10:52:03;12.80;;;3.10;;
74660;SDS011;63191;39.566;2.654;2023-06-10T10:54:34;13.60;;;3.70;;
74660;SDS011;63191;39.566;2.654;2023-06-10T10:57:14;11.80;;;3.20;;
74660;SDS011;63191;39.566;2.654;2023-06-10T10:59:58;10.80;;;2.90;;
74660;SDS011;63191;39.566;2.654;2023-06-10T11:02:42;12.50;;;3.10;;
74660;SDS011;63191;39.566;2.654;2023-06-10T11:05:15;13.80;;;3.10;;
74660;SDS011;63191;39.566;2.654;2023-06-10T11:07:55;12.90;;;3.20;;
74660;SDS011;63191;39.566;2.654;2023-06-10T11:10:39;12.30;;;2.90;;
74660;SDS011;63191;39.566;2.654;2023-06-10T11:13:13;14.70;;;3.10;;
74660;SDS011;63191;39.566;2.654;2023-06-10T11:15:47;13.90;;;3.30;;
74660;SDS011;63191;39.566;2.654;2023-06-10T11:18:25;11.60;;;3.00;;
74660;SDS011;63191;39.566;2.654;2023-06-10T11:20:53;14.60;;;3.30;;
74660;SDS011;63191;39.566;2.654;2023-06-10T11:31:26;11.10;;;3.10;;
74660;SDS011;63191;39.566;2.654;2023-06-10T11:33:57;12.60;;;2.90;;
74660;SDS011;63191;39.566;2.654;2023-06-10T11:36:26;12.80;;;3.10;;
74660;SDS011;63191;39.566;2.654;2023-06-10T11:39:04;11.60;;;3.30;;
74660;SDS011;63191;39.566;2.654;2023-06-10T11:41:31;12.20;;;3.10;;
74660;SDS011;63191;39.566;2.654;2023-06-10T11:44:03;12.80;;;3.00;;
74660;SDS011;63191;39.566;2.654;2023-06-10T11:46:30;9.60;;;2.40;;
74660;SDS011;63191;39.566;2.654;2023-06-10T11:48:58;10.80;;;3.30;;
74660;SDS011;63191;39.566;2.654;2023-06-10T11:51:33;10.90;;;3.00;;
74660;SDS011;63191;39.566;2.654;2023-06-10T11:54:03;9.60;;;3.10;;
74660;SDS011;63191;39.566;2.654;2023-06-10T11:56:31;12.00;;;3.80;;
74660;SDS011;63191;39.566;2.654;2023-06-10T11:59:03;11.50;;;2.60;;
74660;SDS011;63191;39.566;2.654;2023-06-10T12:01:32;11.40;;;2.60;;
74660;SDS011;63191;39.566;2.654;2023-06-10T12:04:04;13.30;;;2.80;;
74660;SDS011;63191;39.566;2.654;2023-06-10T12:06:43;11.80;;;4.40;;
74660;SDS011;63191;39.566;2.654;2023-06-10T12:09:20;12.50;;;4.50;;
74660;SDS011;63191;39.566;2.654;2023-06-10T12:12:01;13.00;;;3.60;;
74660;SDS011;63191;39.566;2.654;2023-06-10T12:14:52;8.80;;;2.70;;
74660;SDS011;63191;39.566;2.654;2023-06-10T12:20:00;11.20;;;3.30;;
74660;SDS011;63191;39.566;2.654;2023-06-10T12:22:27;12.80;;;3.60;;
74660;SDS011;63191;39.566;2.654;2023-06-10T12:25:00;10.20;;;2.80;;
74660;SDS011;63191;39.566;2.654;2023-06-10T12:27:29;12.70;;;3.00;;
74660;SDS011;63191;39.566;2.654;2023-06-10T12:29:56;10.00;;;3.10;;
74660;SDS011;63191;39.566;2.654;2023-06-10T12:32:42;9.00;;;3.20;;
74660;SDS011;63191;39.566;2.654;2023-06-10T12:35:11;12.30;;;2.90;;
74660;SDS011;63191;39.566;2.654;2023-06-10T12:37:39;13.00;;;3.40;;
74660;SDS011;63191;39.566;2.654;2023-06-10T12:40:06;10.50;;;3.60;;
74660;SDS011;63191;39.566;2.654;2023-06-10T12:42:35;10.70;;;3.20;;
74660;SDS011;63191;39.566;2.654;2023-06-10T12:45:03;9.00;;;3.10;;
74660;SDS011;63191;39.566;2.654;2023-06-10T12:47:37;13.90;;;3.50;;
74660;SDS011;63191;39.566;2.654;2023-06-10T12:50:07;11.20;;;3.00;;
74660;SDS011;63191;39.566;2.654;2023-06-10T12:52:34;13.50;;;2.90;;
74660;SDS011;63191;39.566;2.654;2023-06-10T12:55:00;11.40;;;3.10;;
74660;SDS011;63191;39.566;2.654;2023-06-10T12:57:26;14.40;;;4.10;;
74660;SDS011;63191;39.566;2.654;2023-06-10T12:59:52;13.10;;;2.80;;
74660;SDS011;63191;39.566;2.654;2023-06-10T13:02:21;12.80;;;3.10;;
74660;SDS011;63191;39.566;2.654;2023-06-10T13:04:50;12.20;;;3.50;;
74660;SDS011;63191;39.566;2.654;2023-06-10T13:07:17;11.70;;;3.30;;
74660;SDS011;63191;39.566;2.654;2023-06-10T13:09:43;10.20;;;3.30;;
74660;SDS011;63191;39.566;2.654;2023-06-10T13:12:09;10.70;;;3.30;;
74660;SDS011;63191;39.566;2.654;2023-06-10T13:14:36;10.30;;;3.00;;
74660;SDS011;63191;39.566;2.654;2023-06-10T13:17:04;10.10;;;3.10;;
74660;SDS011;63191;39.566;2.654;2023-06-10T13:19:32;10.60;;;2.70;;
74660;SDS011;63191;39.566;2.654;2023-06-10T13:21:58;11.20;;;3.40;;
74660;SDS011;63191;39.566;2.654;2023-06-10T13:24:24;10.10;;;2.80;;
74660;SDS011;63191;39.566;2.654;2023-06-10T13:26:51;9.90;;;3.30;;
74660;SDS011;63191;39.566;2.654;2023-06-10T13:29:17;9.40;;;2.90;;
74660;SDS011;63191;39.566;2.654;2023-06-10T13:31:43;12.90;;;3.10;;
74660;SDS011;63191;39.566;2.654;2023-06-10T13:34:08;11.50;;;3.00;;
74660;SDS011;63191;39.566;2.654;2023-06-10T13:36:34;10.70;;;3.30;;
74660;SDS011;63191;39.566;2.654;2023-06-10T13:39:00;12.70;;;3.20;;
74660;SDS011;63191;39.566;2.654;2023-06-10T13:41:25;10.10;;;2.60;;
74660;SDS011;63191;39.566;2.654;2023-06-10T13:43:54;13.80;;;3.10;;
74660;SDS011;63191;39.566;2.654;2023-06-10T13:46:21;11.60;;;2.90;;
74660;SDS011;63191;39.566;2.654;2023-06-10T13:48:47;11.90;;;3.20;;
74660;SDS011;63191;39.566;2.654;2023-06-10T13:51:16;11.30;;;2.80;;
74660;SDS011;63191;39.566;2.654;2023-06-10T13:53:41;11.30;;;3.20;;
74660;SDS011;63191;39.566;2.654;2023-06-10T13:56:08;12.50;;;3.10;;
74660;SDS011;63191;39.566;2.654;2023-06-10T13:58:33;11.80;;;3.10;;
74660;SDS011;63191;39.566;2.654;2023-06-10T14:01:04;11.20;;;3.40;;
74660;SDS011;63191;39.566;2.654;2023-06-10T14:03:31;12.30;;;3.20;;
74660;SDS011;63191;39.566;2.654;2023-06-10T14:05:57;12.00;;;2.80;;
74660;SDS011;63191;39.566;2.654;2023-06-10T14:08:22;12.20;;;2.90;;
74660;SDS011;63191;39.566;2.654;2023-06-10T14:10:48;12.40;;;3.00;;
74660;SDS011;63191;39.566;2.654;2023-06-10T14:13:16;11.10;;;3.00;;
74660;SDS011;63191;39.566;2.654;2023-06-10T14:15:42;10.70;;;2.70;;
74660;SDS011;63191;39.566;2.654;2023-06-10T14:18:08;10.60;;;3.10;;
74660;SDS011;63191;39.566;2.654;2023-06-10T14:20:35;10.00;;;2.90;;
74660;SDS011;63191;39.566;2.654;2023-06-10T14:23:01;12.60;;;2.60;;
74660;SDS011;63191;39.566;2.654;2023-06-10T14:25:27;10.10;;;2.70;;
74660;SDS011;63191;39.566;2.654;2023-06-10T14:27:53;11.20;;;2.60;;
74660;SDS011;63191;39.566;2.654;2023-06-10T14:30:19;12.00;;;2.70;;
74660;SDS011;63191;39.566;2.654;2023-06-10T14:32:45;13.30;;;2.80;;
74660;SDS011;63191;39.566;2.654;2023-06-10T14:35:11;12.00;;;3.20;;
74660;SDS011;63191;39.566;2.654;2023-06-10T14:37:37;10.90;;;2.60;;
74660;SDS011;63191;39.566;2.654;2023-06-10T14:40:06;9.50;;;2.70;;
74660;SDS011;63191;39.566;2.654;2023-06-10T14:42:32;11.30;;;2.90;;
74660;SDS011;63191;39.566;2.654;2023-06-10T14:44:58;10.80;;;2.90;;
74660;SDS011;63191;39.566;2.654;2023-06-10T14:47:24;11.40;;;3.30;;
74660;SDS011;63191;39.566;2.654;2023-06-10T14:49:50;10.20;;;2.80;;
74660;SDS011;63191;39.566;2.654;2023-06-10T14:52:16;13.30;;;2.50;;
74660;SDS011;63191;39.566;2.654;2023-06-10T14:54:42;9.80;;;2.30;;
74660;SDS011;63191;39.566;2.654;2023-06-10T14:57:08;9.10;;;2.10;;